createdAt,value
2022-12-03T00:01:45.453Z,101574.25
2022-12-03T00:04:12.013Z,101565.88
2022-12-03T00:06:38.592Z,101569.75
2022-12-03T00:09:05.436Z,101567.81
2022-12-03T00:11:32.429Z,101568.78
2022-12-03T00:13:58.898Z,101569.31
2022-12-03T00:16:25.823Z,101568.13
2022-12-03T00:18:52.893Z,101560.22
2022-12-03T00:21:20.004Z,101567.16
2022-12-03T00:23:46.554Z,101553.56
2022-12-03T00:26:13.426Z,101563.09
2022-12-03T00:28:39.922Z,101550.34
2022-12-03T00:31:06.524Z,101561.25
2022-12-03T00:33:33.140Z,101556.66
2022-12-03T00:35:59.634Z,101558.47
2022-12-03T00:38:26.175Z,101542.50
2022-12-03T00:40:52.663Z,101550.03
2022-12-03T00:43:19.127Z,101541.19
2022-12-03T00:45:45.626Z,101553.03
2022-12-03T00:48:12.093Z,101539.56
2022-12-03T00:50:38.579Z,101548.00
2022-12-03T00:53:05.063Z,101552.06
2022-12-03T00:55:31.570Z,101545.31
2022-12-03T00:57:58.081Z,101552.72
2022-12-03T01:00:25.409Z,101545.53
2022-12-03T01:02:52.970Z,101545.25
2022-12-03T01:05:20.362Z,101539.97
2022-12-03T01:07:47.849Z,101548.34
2022-12-03T01:10:14.685Z,101542.00
2022-12-03T01:12:41.199Z,101542.00
2022-12-03T01:15:08.515Z,101536.34
2022-12-03T01:17:35.356Z,101530.34
2022-12-03T01:20:02.353Z,101538.06
2022-12-03T01:22:28.855Z,101548.34
2022-12-03T01:24:55.723Z,101538.91
2022-12-03T01:27:22.795Z,101534.84
2022-12-03T01:29:49.302Z,101540.81
2022-12-03T01:32:22.000Z,101529.72
2022-12-03T01:34:56.116Z,101531.84
2022-12-03T01:37:24.902Z,101525.44
2022-12-03T01:39:52.218Z,101525.22
2022-12-03T01:42:27.175Z,101544.38
2022-12-03T01:44:56.625Z,101526.28
2022-12-03T01:47:33.603Z,101532.06
2022-12-03T01:50:04.473Z,101530.38
2022-12-03T01:52:33.939Z,101524.16
2022-12-03T01:55:02.704Z,101521.78
2022-12-03T01:57:41.546Z,101515.16
2022-12-03T02:00:22.768Z,101522.44
2022-12-03T02:02:56.255Z,101519.13
2022-12-03T02:05:26.300Z,101522.00
2022-12-03T02:07:53.470Z,101519.13
2022-12-03T02:10:25.484Z,101531.22
2022-12-03T02:12:57.835Z,101515.38
2022-12-03T02:15:24.958Z,101525.66
2022-12-03T02:17:52.190Z,101527.50
2022-12-03T02:20:19.724Z,101523.41
2022-12-03T02:22:49.120Z,101529.50
2022-12-03T02:25:21.217Z,101531.84
2022-12-03T02:27:48.366Z,101526.06
2022-12-03T02:30:18.962Z,101533.03
2022-12-03T02:32:45.885Z,101525.75
2022-12-03T02:35:19.496Z,101531.22
2022-12-03T02:38:13.201Z,101536.91
2022-12-03T02:40:40.683Z,101528.75
2022-12-03T02:43:07.418Z,101525.66
2022-12-03T02:45:38.716Z,101528.75
2022-12-03T02:48:16.493Z,101534.03
2022-12-03T02:50:53.100Z,101527.78
2022-12-03T02:53:24.931Z,101534.66
2022-12-03T02:55:53.262Z,101527.59
2022-12-03T02:58:20.675Z,101524.16
2022-12-03T03:00:49.448Z,101526.94
2022-12-03T03:03:17.918Z,101530.16
2022-12-03T03:05:45.565Z,101528.22
2022-12-03T03:08:13.039Z,101525.88
2022-12-03T03:10:41.629Z,101516.22
2022-12-03T03:13:11.626Z,101515.91
2022-12-03T03:15:39.689Z,101522.97
2022-12-03T03:18:07.728Z,101521.50
2022-12-03T03:20:35.030Z,101514.72
2022-12-03T03:23:19.801Z,101518.06
2022-12-03T03:25:50.451Z,101510.69
2022-12-03T03:28:17.713Z,101520.41
2022-12-03T03:30:44.727Z,101520.31
2022-12-03T03:33:13.063Z,101521.59
2022-12-03T03:35:40.196Z,101516.22
2022-12-03T03:38:09.002Z,101512.06
2022-12-03T03:40:37.087Z,101520.72
2022-12-03T03:43:04.141Z,101509.06
2022-12-03T03:45:30.805Z,101523.19
2022-12-03T03:48:01.240Z,101515.28
2022-12-03T03:50:31.433Z,101513.25
2022-12-03T03:52:59.608Z,101508.94
2022-12-03T03:55:26.469Z,101508.19
2022-12-03T03:57:53.196Z,101515.03
2022-12-03T04:00:19.921Z,101510.75
2022-12-03T04:02:46.854Z,101503.91
2022-12-03T04:05:19.228Z,101507.34
2022-12-03T04:07:46.109Z,101505.31
2022-12-03T04:10:36.668Z,101504.53
2022-12-03T04:13:04.363Z,101505.72
2022-12-03T04:15:31.382Z,101502.41
2022-12-03T04:18:16.505Z,101504.25
2022-12-03T04:20:43.114Z,101505.50
2022-12-03T04:23:09.614Z,101508.44
2022-12-03T04:25:54.805Z,101510.00
2022-12-03T04:28:40.238Z,101505.84
2022-12-03T04:31:25.950Z,101498.53
2022-12-03T04:34:11.641Z,101508.50
2022-12-03T04:36:38.279Z,101501.25
2022-12-03T04:39:04.856Z,101504.44
2022-12-03T04:41:31.348Z,101496.50
2022-12-03T04:44:16.312Z,101501.44
2022-12-03T04:46:42.838Z,101500.81
2022-12-03T04:49:09.340Z,101496.22
2022-12-03T04:51:36.013Z,101491.28
2022-12-03T04:54:02.604Z,101492.66
2022-12-03T04:56:29.142Z,101494.03
2022-12-03T04:58:55.709Z,101484.72
2022-12-03T05:01:22.608Z,101482.38
2022-12-03T05:03:49.308Z,101495.53
2022-12-03T05:06:15.834Z,101487.81
2022-12-03T05:08:42.335Z,101484.72
2022-12-03T05:11:08.807Z,101494.06
2022-12-03T05:13:35.478Z,101489.78
2022-12-03T05:16:01.939Z,101490.00
2022-12-03T05:18:28.494Z,101492.22
2022-12-03T05:20:54.987Z,101491.41
2022-12-03T05:23:22.474Z,101490.84
2022-12-03T05:25:49.050Z,101478.84
2022-12-03T05:28:15.709Z,101487.84
2022-12-03T05:30:42.365Z,101481.09
2022-12-03T05:33:08.935Z,101477.25
2022-12-03T05:35:35.414Z,101481.47
2022-12-03T05:38:01.922Z,101480.84
2022-12-03T05:40:28.617Z,101475.50
2022-12-03T05:42:55.259Z,101470.91
2022-12-03T05:45:33.440Z,101475.50
2022-12-03T05:48:01.071Z,101472.25
2022-12-03T05:50:30.117Z,101467.81
2022-12-03T05:52:57.380Z,101468.22
2022-12-03T05:55:24.334Z,101474.75
2022-12-03T05:57:50.892Z,101475.50
2022-12-03T06:00:28.919Z,101467.56
2022-12-03T06:02:55.965Z,101462.13
2022-12-03T06:05:23.346Z,101472.91
2022-12-03T06:07:51.488Z,101472.09
2022-12-03T06:10:22.489Z,101470.72
2022-12-03T06:12:49.172Z,101462.44
2022-12-03T06:15:16.067Z,101466.97
2022-12-03T06:17:43.415Z,101475.50
2022-12-03T06:20:13.848Z,101475.50
2022-12-03T06:22:40.489Z,101472.09
2022-12-03T06:25:07.788Z,101465.78
2022-12-03T06:27:34.412Z,101461.28
2022-12-03T06:30:00.906Z,101474.63
2022-12-03T06:32:27.952Z,101467.88
2022-12-03T06:34:54.651Z,101479.34
2022-12-03T06:37:21.443Z,101472.09
2022-12-03T06:39:47.972Z,101488.81
2022-12-03T06:42:14.454Z,101484.81
2022-12-03T06:44:41.491Z,101478.88
2022-12-03T06:47:08.014Z,101482.47
2022-12-03T06:49:34.831Z,101480.50
2022-12-03T06:52:01.392Z,101488.31
2022-12-03T06:54:27.940Z,101486.38
2022-12-03T06:56:54.670Z,101490.88
2022-12-03T06:59:21.188Z,101494.16
2022-12-03T07:01:47.771Z,101495.97
2022-12-03T07:04:14.318Z,101497.00
2022-12-03T07:06:40.883Z,101491.75
2022-12-03T07:09:07.452Z,101491.81
2022-12-03T07:11:40.008Z,101494.38
2022-12-03T07:14:08.007Z,101490.28
2022-12-03T07:16:36.002Z,101490.19
2022-12-03T07:19:03.544Z,101491.47
2022-12-03T07:21:30.086Z,101490.09
2022-12-03T07:23:56.576Z,101503.22
2022-12-03T07:26:23.100Z,101492.94
2022-12-03T07:28:49.627Z,101495.03
2022-12-03T07:31:16.213Z,101484.09
2022-12-03T07:33:42.918Z,101486.56
2022-12-03T07:36:10.306Z,101486.50
2022-12-03T07:38:37.034Z,101482.56
2022-12-03T07:41:03.574Z,101488.72
2022-12-03T07:43:30.200Z,101486.09
2022-12-03T07:45:56.696Z,101478.00
2022-12-03T07:48:23.281Z,101474.13
2022-12-03T07:50:49.806Z,101481.63
2022-12-03T07:53:16.483Z,101474.78
2022-12-03T07:55:43.303Z,101476.22
2022-12-03T07:58:09.766Z,101472.00
2022-12-03T08:00:36.396Z,101476.16
2022-12-03T08:03:03.153Z,101476.06
2022-12-03T08:05:29.943Z,101482.44
2022-12-03T08:07:56.814Z,101471.25
2022-12-03T08:10:25.175Z,101477.41
2022-12-03T08:12:51.703Z,101476.56
2022-12-03T08:15:24.284Z,101468.16
2022-12-03T08:17:58.727Z,101472.25
2022-12-03T08:20:33.846Z,101470.59
2022-12-03T08:23:06.690Z,101468.44
2022-12-03T08:25:33.273Z,101463.97
2022-12-03T08:28:35.679Z,101474.22
2022-12-03T08:31:18.575Z,101477.03
2022-12-03T08:33:46.293Z,101472.31
2022-12-03T08:36:16.812Z,101475.88
2022-12-03T08:38:51.059Z,101478.19
2022-12-03T08:41:39.538Z,101471.56
2022-12-03T08:44:36.743Z,101477.88
2022-12-03T08:47:09.120Z,101478.63
2022-12-03T08:49:36.935Z,101475.31
2022-12-03T08:52:13.784Z,101473.03
2022-12-03T08:54:41.332Z,101472.38
2022-12-03T08:57:27.398Z,101470.88
2022-12-03T08:59:58.957Z,101482.78
2022-12-03T09:02:32.637Z,101478.97
2022-12-03T09:05:13.374Z,101481.06
2022-12-03T09:07:40.022Z,101471.03
2022-12-03T09:10:07.510Z,101468.22
2022-12-03T09:12:34.085Z,101468.25
2022-12-03T09:15:01.362Z,101466.78
2022-12-03T09:17:27.851Z,101456.19
2022-12-03T09:19:54.626Z,101458.06
2022-12-03T09:22:21.122Z,101472.03
2022-12-03T09:24:47.696Z,101466.78
2022-12-03T09:27:14.173Z,101457.31
2022-12-03T09:29:40.764Z,101453.94
2022-12-03T09:32:07.321Z,101444.47
2022-12-03T09:34:34.856Z,101441.53
2022-12-03T09:37:01.857Z,101444.22
2022-12-03T09:39:28.360Z,101442.81
2022-12-03T09:41:55.782Z,101440.06
2022-12-03T09:44:22.454Z,101431.50
2022-12-03T09:46:49.463Z,101444.31
2022-12-03T09:49:18.279Z,101433.69
2022-12-03T09:51:45.579Z,101439.81
2022-12-03T09:54:23.159Z,101435.69
2022-12-03T09:56:50.686Z,101436.09
2022-12-03T09:59:17.559Z,101434.28
2022-12-03T10:01:44.686Z,101425.75
2022-12-03T10:04:11.679Z,101437.41
2022-12-03T10:06:43.991Z,101426.09
2022-12-03T10:09:18.297Z,101427.56
2022-12-03T10:11:44.849Z,101426.59
2022-12-03T10:14:15.487Z,101421.34
2022-12-03T10:16:42.208Z,101412.91
2022-12-03T10:19:26.158Z,101420.13
2022-12-03T10:21:53.018Z,101419.41
2022-12-03T10:24:29.028Z,101417.09
2022-12-03T10:27:00.893Z,101413.91
2022-12-03T10:29:33.894Z,101410.50
2022-12-03T10:32:06.450Z,101406.34
2022-12-03T10:34:38.949Z,101401.19
2022-12-03T10:37:14.086Z,101418.25
2022-12-03T10:39:59.460Z,101416.22
2022-12-03T10:42:28.930Z,101419.00
2022-12-03T10:45:07.694Z,101414.13
2022-12-03T10:47:34.437Z,101407.66
2022-12-03T10:50:04.745Z,101402.81
2022-12-03T10:52:31.617Z,101403.03
2022-12-03T10:54:58.338Z,101406.81
2022-12-03T10:57:25.237Z,101406.66
2022-12-03T10:59:51.781Z,101400.31
2022-12-03T11:02:24.016Z,101396.41
2022-12-03T11:04:51.916Z,101395.16
2022-12-03T11:07:20.871Z,101387.78
2022-12-03T11:09:50.097Z,101391.53
2022-12-03T11:12:20.739Z,101396.69
2022-12-03T11:15:05.255Z,101382.50
2022-12-03T11:17:43.997Z,101386.38
2022-12-03T11:20:22.993Z,101383.72
2022-12-03T11:22:55.120Z,101389.06
2022-12-03T11:25:24.609Z,101395.56
2022-12-03T11:28:13.063Z,101392.72
2022-12-03T11:30:48.914Z,101393.06
2022-12-03T11:33:28.098Z,101395.41
2022-12-03T11:36:03.850Z,101396.00
2022-12-03T11:38:41.016Z,101389.03
2022-12-03T11:41:13.508Z,101392.94
2022-12-03T11:43:54.017Z,101384.16
2022-12-03T11:46:22.366Z,101387.31
2022-12-03T11:48:52.282Z,101392.31
2022-12-03T11:51:22.090Z,101386.28
2022-12-03T11:53:51.064Z,101386.31
2022-12-03T11:56:21.234Z,101383.97
2022-12-03T11:58:48.129Z,101380.56
2022-12-03T12:01:16.361Z,101378.69
2022-12-03T12:03:49.051Z,101371.66
2022-12-03T12:06:17.896Z,101362.81
2022-12-03T12:08:58.924Z,101372.41
2022-12-03T12:11:34.189Z,101363.44
2022-12-03T12:14:03.042Z,101355.13
2022-12-03T12:16:51.868Z,101357.72
2022-12-03T12:19:33.493Z,101356.13
2022-12-03T12:22:20.138Z,101364.09
2022-12-03T12:24:51.818Z,101368.09
2022-12-03T12:27:29.046Z,101365.88
2022-12-03T12:30:00.743Z,101363.00
2022-12-03T12:32:30.624Z,101366.66
2022-12-03T12:35:02.454Z,101363.91
2022-12-03T12:37:47.368Z,101355.59
2022-12-03T12:40:18.122Z,101361.59
2022-12-03T12:42:53.634Z,101359.53
2022-12-03T12:45:36.532Z,101350.34
2022-12-03T12:48:21.292Z,101346.84
2022-12-03T12:50:50.742Z,101351.25
2022-12-03T12:53:24.214Z,101342.84
2022-12-03T12:55:57.558Z,101345.53
2022-12-03T12:58:25.488Z,101358.34
2022-12-03T13:00:55.476Z,101356.72
2022-12-03T13:03:26.083Z,101356.81
2022-12-03T13:05:53.777Z,101360.50
2022-12-03T13:08:30.713Z,101356.78
2022-12-03T13:11:02.010Z,101361.31
2022-12-03T13:13:30.303Z,101360.91
2022-12-03T13:16:18.872Z,101357.56
2022-12-03T13:18:49.470Z,101358.53
2022-12-03T13:21:44.060Z,101359.25
2022-12-03T13:24:32.064Z,101361.63
2022-12-03T13:27:19.649Z,101357.81
2022-12-03T13:29:49.723Z,101359.84
2022-12-03T13:32:20.157Z,101364.25
2022-12-03T13:34:47.559Z,101359.13
2022-12-03T13:37:22.554Z,101362.66
2022-12-03T13:39:55.180Z,101366.75
2022-12-03T13:42:38.746Z,101372.84
2022-12-03T13:45:25.806Z,101366.03
2022-12-03T13:47:58.386Z,101367.41
2022-12-03T13:50:43.962Z,101374.63
2022-12-03T13:53:18.258Z,101363.53
2022-12-03T13:55:48.090Z,101362.41
2022-12-03T13:58:14.722Z,101358.22
2022-12-03T14:00:41.478Z,101360.59
2022-12-03T14:03:08.168Z,101364.00
2022-12-03T14:05:34.818Z,101363.84
2022-12-03T14:08:04.951Z,101368.66
2022-12-03T14:10:31.959Z,101358.16
2022-12-03T14:12:58.447Z,101369.97
2022-12-03T14:15:27.535Z,101365.50
2022-12-03T14:17:54.175Z,101365.69
2022-12-03T14:20:21.103Z,101368.53
2022-12-03T14:22:47.623Z,101362.41
2022-12-03T14:25:14.207Z,101354.47
2022-12-03T14:27:40.701Z,101356.19
2022-12-03T14:30:07.876Z,101362.66
2022-12-03T14:32:34.369Z,101359.34
2022-12-03T14:35:05.140Z,101365.53
2022-12-03T14:37:34.761Z,101369.38
2022-12-03T14:40:03.735Z,101370.59
2022-12-03T14:42:30.272Z,101374.69
2022-12-03T14:44:57.439Z,101375.41
2022-12-03T14:47:24.004Z,101379.53
2022-12-03T14:49:51.736Z,101373.81
2022-12-03T14:52:18.937Z,101376.25
2022-12-03T14:54:45.651Z,101365.81
2022-12-03T14:57:14.385Z,101371.06
2022-12-03T14:59:42.505Z,101368.38
2022-12-03T15:02:10.384Z,101369.78
2022-12-03T15:04:37.532Z,101375.19
2022-12-03T15:07:04.373Z,101383.16
2022-12-03T15:09:30.954Z,101377.22
2022-12-03T15:11:57.467Z,101384.19
2022-12-03T15:14:24.008Z,101384.28
2022-12-03T15:16:50.615Z,101389.66
2022-12-03T15:19:17.200Z,101384.28
2022-12-03T15:21:43.850Z,101397.25
2022-12-03T15:24:10.804Z,101389.44
2022-12-03T15:26:37.501Z,101394.38
2022-12-03T15:29:04.108Z,101396.06
2022-12-03T15:31:30.806Z,101397.13
2022-12-03T15:33:57.326Z,101395.44
2022-12-03T15:36:23.851Z,101403.50
2022-12-03T15:38:50.349Z,101401.41
2022-12-03T15:41:29.504Z,101395.91
2022-12-03T15:44:01.523Z,101405.88
2022-12-03T15:46:28.777Z,101402.47
2022-12-03T15:48:55.851Z,101402.91
2022-12-03T15:51:22.529Z,101397.41
2022-12-03T15:53:49.223Z,101402.47
2022-12-03T15:56:15.976Z,101409.66
2022-12-03T15:58:42.895Z,101407.06
2022-12-03T16:01:09.844Z,101405.72
2022-12-03T16:03:36.885Z,101406.06
2022-12-03T16:06:03.543Z,101406.34
2022-12-03T16:08:30.131Z,101412.88
2022-12-03T16:10:56.758Z,101409.34
2022-12-03T16:13:23.302Z,101407.44
2022-12-03T16:15:50.009Z,101419.78
2022-12-03T16:18:16.632Z,101413.94
2022-12-03T16:20:43.246Z,101423.22
2022-12-03T16:23:09.835Z,101408.56
2022-12-03T16:25:36.323Z,101403.75
2022-12-03T16:28:03.242Z,101407.44
2022-12-03T16:30:29.794Z,101411.81
2022-12-03T16:32:57.114Z,101406.84
2022-12-03T16:35:23.688Z,101421.22
2022-12-03T16:37:50.146Z,101419.13
2022-12-03T16:40:16.819Z,101418.66
2022-12-03T16:42:43.738Z,101417.34
2022-12-03T16:45:10.758Z,101429.03
2022-12-03T16:47:37.633Z,101420.84
2022-12-03T16:50:07.599Z,101418.25
2022-12-03T16:52:35.013Z,101429.75
2022-12-03T16:55:01.753Z,101426.22
2022-12-03T16:57:33.432Z,101426.56
2022-12-03T17:00:00.958Z,101429.56
2022-12-03T17:02:27.786Z,101425.91
2022-12-03T17:04:54.859Z,101423.06
2022-12-03T17:07:21.376Z,101421.81
2022-12-03T17:09:47.883Z,101414.84
2022-12-03T17:12:14.916Z,101421.94
2022-12-03T17:14:41.382Z,101409.66
2022-12-03T17:17:08.251Z,101412.28
2022-12-03T17:19:35.959Z,101410.31
2022-12-03T17:22:02.433Z,101407.06
2022-12-03T17:24:28.962Z,101407.06
2022-12-03T17:26:55.466Z,101415.47
2022-12-03T17:29:22.248Z,101420.13
2022-12-03T17:31:48.866Z,101418.59
2022-12-03T17:34:15.455Z,101406.13
2022-12-03T17:36:41.936Z,101405.81
2022-12-03T17:39:08.924Z,101405.81
2022-12-03T17:41:35.457Z,101405.81
2022-12-03T17:44:07.293Z,101415.00
2022-12-03T17:46:36.451Z,101406.78
2022-12-03T17:49:03.795Z,101416.91
2022-12-03T17:51:30.681Z,101397.72
2022-12-03T17:53:58.165Z,101408.69
2022-12-03T17:56:25.605Z,101410.97
2022-12-03T17:58:52.180Z,101417.28
2022-12-03T18:01:18.833Z,101407.72
2022-12-03T18:03:45.363Z,101411.59
2022-12-03T18:06:11.900Z,101410.66
2022-12-03T18:08:38.465Z,101413.81
2022-12-03T18:11:05.202Z,101412.09
2022-12-03T18:13:31.695Z,101408.16
2022-12-03T18:15:58.235Z,101406.13
2022-12-03T18:18:24.780Z,101407.63
2022-12-03T18:20:53.284Z,101394.56
2022-12-03T18:23:21.071Z,101410.72
2022-12-03T18:25:47.932Z,101390.38
2022-12-03T18:28:14.452Z,101390.94
2022-12-03T18:30:40.943Z,101382.75
2022-12-03T18:33:07.538Z,101405.03
2022-12-03T18:35:34.136Z,101395.03
2022-12-03T18:38:00.717Z,101376.84
2022-12-03T18:40:27.351Z,101378.81
2022-12-03T18:42:53.897Z,101356.09
2022-12-03T18:45:21.687Z,101374.22
2022-12-03T18:47:48.420Z,101386.69
2022-12-03T18:50:15.035Z,101394.50
2022-12-03T18:52:41.662Z,101391.94
2022-12-03T18:55:12.421Z,101403.03
2022-12-03T18:57:39.942Z,101391.09
2022-12-03T19:00:13.242Z,101404.34
2022-12-03T19:03:03.772Z,101406.47
2022-12-03T19:05:26.776Z,101408.94
2022-12-03T19:07:55.235Z,101411.06
2022-12-03T19:10:23.115Z,101400.28
2022-12-03T19:12:50.254Z,101409.63
2022-12-03T19:15:17.161Z,101408.22
2022-12-03T19:17:49.236Z,101409.06
2022-12-03T19:20:16.016Z,101413.75
2022-12-03T19:22:42.759Z,101419.44
2022-12-03T19:25:09.445Z,101409.22
2022-12-03T19:27:35.932Z,101405.91
2022-12-03T19:30:02.455Z,101405.38
2022-12-03T19:32:29.043Z,101397.69
2022-12-03T19:34:55.657Z,101407.09
2022-12-03T19:37:22.193Z,101411.06
2022-12-03T19:39:53.263Z,101407.97
2022-12-03T19:42:20.037Z,101411.22
2022-12-03T19:44:46.620Z,101409.66
2022-12-03T19:47:13.244Z,101416.91
2022-12-03T19:49:39.780Z,101425.16
2022-12-03T19:52:06.265Z,101413.53
2022-12-03T19:54:32.955Z,101413.78
2022-12-03T19:56:59.516Z,101411.50
2022-12-03T19:59:26.088Z,101411.84
2022-12-03T20:01:53.269Z,101414.06
2022-12-03T20:04:20.107Z,101424.16
2022-12-03T20:06:47.601Z,101414.78
2022-12-03T20:09:18.258Z,101422.94
2022-12-03T20:11:45.983Z,101420.56
2022-12-03T20:14:15.533Z,101409.72
2022-12-03T20:16:42.396Z,101415.66
2022-12-03T20:19:12.069Z,101410.91
2022-12-03T20:21:39.375Z,101399.81
2022-12-03T20:24:07.729Z,101409.47
2022-12-03T20:26:34.556Z,101397.44
2022-12-03T20:29:01.571Z,101390.88
2022-12-03T20:31:30.860Z,101392.13
2022-12-03T20:34:00.628Z,101384.38
2022-12-03T20:36:29.140Z,101400.53
2022-12-03T20:38:56.957Z,101394.13
2022-12-03T20:41:24.274Z,101398.53
2022-12-03T20:43:51.627Z,101390.22
2022-12-03T20:46:21.500Z,101399.00
2022-12-03T20:48:48.262Z,101414.56
2022-12-03T20:51:18.060Z,101411.22
2022-12-03T20:53:45.231Z,101421.13
2022-12-03T20:56:26.065Z,101425.97
2022-12-03T20:58:53.752Z,101412.06
2022-12-03T21:01:26.500Z,101409.09
2022-12-03T21:03:55.856Z,101410.34
2022-12-03T21:06:24.214Z,101419.09
2022-12-03T21:08:55.147Z,101425.53
2022-12-03T21:11:24.200Z,101424.53
2022-12-03T21:13:53.053Z,101413.28
2022-12-03T21:16:45.480Z,101415.72
2022-12-03T21:19:10.072Z,101410.03
2022-12-03T21:21:36.810Z,101417.53
2022-12-03T21:24:03.526Z,101415.81
2022-12-03T21:26:30.020Z,101419.91
2022-12-03T21:28:56.512Z,101420.22
2022-12-03T21:31:25.990Z,101415.56
2022-12-03T21:33:53.949Z,101418.75
2022-12-03T21:36:20.608Z,101415.09
2022-12-03T21:38:48.254Z,101410.44
2022-12-03T21:41:16.021Z,101407.75
2022-12-03T21:43:43.403Z,101409.16
2022-12-03T21:47:08.371Z,101420.22
2022-12-03T21:49:00.286Z,101424.91
2022-12-03T21:51:26.822Z,101428.31
2022-12-03T21:53:53.373Z,101430.22
2022-12-03T21:56:20.118Z,101420.88
2022-12-03T21:58:47.121Z,101432.44
2022-12-03T22:01:16.800Z,101424.34
2022-12-03T22:03:43.705Z,101426.34
2022-12-03T22:06:10.930Z,101420.94
2022-12-03T22:08:39.020Z,101426.19
2022-12-03T22:11:12.629Z,101425.63
2022-12-03T22:13:39.741Z,101452.56
2022-12-03T22:16:12.211Z,101430.53
2022-12-03T22:18:39.333Z,101440.84
2022-12-03T22:21:08.005Z,101425.56
2022-12-03T22:23:35.288Z,101424.16
2022-12-03T22:26:05.634Z,101416.63
2022-12-03T22:28:32.855Z,101412.22
2022-12-03T22:30:59.687Z,101416.44
2022-12-03T22:33:26.438Z,101409.66
2022-12-03T22:35:57.454Z,101408.22
2022-12-03T22:38:24.435Z,101417.88
2022-12-03T22:40:51.118Z,101406.53
2022-12-03T22:43:18.814Z,101399.28
2022-12-03T22:45:45.804Z,101407.09
2022-12-03T22:48:12.730Z,101413.34
2022-12-03T22:50:44.467Z,101407.25
2022-12-03T22:53:12.133Z,101401.00
2022-12-03T22:55:39.259Z,101402.97
2022-12-03T22:58:07.000Z,101398.88
2022-12-03T23:00:37.325Z,101397.13
2022-12-03T23:03:04.781Z,101403.75
2022-12-03T23:05:38.595Z,101411.44
2022-12-03T23:08:06.917Z,101411.59
2022-12-03T23:10:35.804Z,101409.63
2022-12-03T23:13:02.466Z,101411.59
2022-12-03T23:15:29.070Z,101397.66
2022-12-03T23:17:55.894Z,101392.19
2022-12-03T23:20:22.699Z,101399.41
2022-12-03T23:22:49.373Z,101404.41
2022-12-03T23:25:16.567Z,101413.03
2022-12-03T23:27:43.716Z,101398.69
2022-12-03T23:30:11.274Z,101413.28
2022-12-03T23:32:38.478Z,101401.13
2022-12-03T23:35:05.903Z,101400.47
2022-12-03T23:37:32.461Z,101394.69
2022-12-03T23:39:58.984Z,101380.25
2022-12-03T23:42:25.545Z,101391.28
2022-12-03T23:44:52.104Z,101386.75
2022-12-03T23:47:18.584Z,101402.03
2022-12-03T23:49:45.115Z,101394.25
2022-12-03T23:52:11.627Z,101399.88
2022-12-03T23:54:38.197Z,101386.91
2022-12-03T23:57:04.804Z,101406.84
2022-12-03T23:59:31.355Z,101391.56
